Dialville, Texas
Current Conditions -  °F | °C
As of 5:15 AM on Friday 26 Dec 2014 (Local Time) from KJSO Reporting Station
Overcast Overcast  
Wind Chill: 53°   Ceiling: 4300
Heat Index: 53°   Visibility: 10mi
Dew Point: 50°   Wind: 7mph
Humidity: 89%   Direction: 140°SE
Pressure: 30.02"   Gusts: NA
Location:  31.7956°N, 95.1946°W
Report Text: KJSO 261115Z AUTO 14006KT 10SM OVC043 11/10 A3002 RMK AO2 T01150098
Loading
Personal Weather Stations






























Interactive Weather Map New forecast layout! Learn more

10-Day Weather Forecast

Advertisements
Track Severe Weather on mobile